createdAt,value
2022-08-08T00:02:03.354Z,70.06
2022-08-08T00:04:27.966Z,70.43
2022-08-08T00:06:57.958Z,70.43
2022-08-08T00:09:33.113Z,70.70
2022-08-08T00:12:10.578Z,70.62
2022-08-08T00:15:00.801Z,70.47
2022-08-08T00:18:02.032Z,70.37
2022-08-08T00:20:57.164Z,70.64
2022-08-08T00:23:47.408Z,71.03
2022-08-08T00:26:29.169Z,71.19
2022-08-08T00:29:44.754Z,71.37
2022-08-08T00:32:20.779Z,71.08
2022-08-08T00:35:22.054Z,71.11
2022-08-08T00:38:03.324Z,71.27
2022-08-08T00:41:09.858Z,71.24
2022-08-08T00:44:00.574Z,70.98
2022-08-08T00:46:56.864Z,70.89
2022-08-08T00:49:57.728Z,70.94
2022-08-08T00:52:54.187Z,71.44
2022-08-08T00:55:53.672Z,71.14
2022-08-08T00:58:54.077Z,71.32
2022-08-08T01:01:44.793Z,71.24
2022-08-08T01:04:54.298Z,71.17
2022-08-08T01:07:55.379Z,71.07
2022-08-08T01:10:44.787Z,71.21
2022-08-08T01:13:44.504Z,71.02
2022-08-08T01:16:46.266Z,70.63
2022-08-08T01:19:52.402Z,70.43
2022-08-08T01:22:47.551Z,70.72
2022-08-08T01:25:42.854Z,70.75
2022-08-08T01:28:32.965Z,71.00
2022-08-08T01:32:12.889Z,70.89
2022-08-08T01:34:45.699Z,70.74
2022-08-08T01:37:56.634Z,70.64
2022-08-08T01:40:37.393Z,70.46
2022-08-08T01:43:07.660Z,70.47
2022-08-08T01:45:50.493Z,70.27
2022-08-08T01:48:52.110Z,70.40
2022-08-08T01:52:51.352Z,70.51
2022-08-08T01:55:26.860Z,70.52
2022-08-08T01:58:12.185Z,70.64
2022-08-08T02:00:57.422Z,70.69
2022-08-08T02:03:54.964Z,70.99
2022-08-08T02:06:44.752Z,71.07
2022-08-08T02:10:01.374Z,71.24
2022-08-08T02:12:30.601Z,71.48
2022-08-08T02:15:20.723Z,71.59
2022-08-08T02:18:16.117Z,71.65
2022-08-08T02:21:18.323Z,71.51
2022-08-08T02:24:00.396Z,71.80
2022-08-08T02:26:30.506Z,72.32
2022-08-08T02:29:24.033Z,72.59
2022-08-08T02:32:26.380Z,72.38
2022-08-08T02:35:11.220Z,72.29
2022-08-08T02:38:09.122Z,72.13
2022-08-08T02:40:45.330Z,72.21
2022-08-08T02:44:42.670Z,72.21
2022-08-08T02:46:43.837Z,72.14
2022-08-08T02:49:51.055Z,71.81
2022-08-08T02:52:50.440Z,71.45
2022-08-08T02:55:47.243Z,71.33
2022-08-08T02:58:33.043Z,71.51
2022-08-08T03:01:16.729Z,71.89
2022-08-08T03:05:03.476Z,71.72
2022-08-08T03:07:58.418Z,71.67
2022-08-08T03:10:53.400Z,71.67
2022-08-08T03:16:04.026Z,71.85
2022-08-08T03:16:35.562Z,71.92
2022-08-08T03:19:23.922Z,71.64
2022-08-08T03:21:58.389Z,71.42
2022-08-08T03:24:28.837Z,71.38
2022-08-08T03:27:03.226Z,71.31
2022-08-08T03:29:55.994Z,71.43
2022-08-08T03:32:41.407Z,71.41
2022-08-08T03:35:10.592Z,71.28
2022-08-08T03:37:59.737Z,71.21
2022-08-08T03:40:29.279Z,71.04
2022-08-08T03:43:18.059Z,71.00
2022-08-08T03:46:05.168Z,71.03
2022-08-08T03:49:10.134Z,70.98
2022-08-08T03:51:40.189Z,70.64
2022-08-08T03:54:10.093Z,70.57
2022-08-08T03:56:46.433Z,70.39
2022-08-08T03:59:22.519Z,70.23
2022-08-08T04:02:22.973Z,70.10
2022-08-08T04:04:38.133Z,70.16
2022-08-08T04:07:05.235Z,70.26
2022-08-08T04:10:03.372Z,70.10
2022-08-08T04:12:24.179Z,69.99
2022-08-08T04:14:51.237Z,69.81
2022-08-08T04:17:40.792Z,69.96
2022-08-08T04:20:08.358Z,70.08
2022-08-08T04:22:36.932Z,69.35
2022-08-08T04:25:06.858Z,69.25
2022-08-08T04:28:02.535Z,69.58
2022-08-08T04:30:23.022Z,69.79
2022-08-08T04:32:52.299Z,70.18
2022-08-08T04:35:23.204Z,70.22
2022-08-08T04:37:52.549Z,70.36
2022-08-08T04:40:25.350Z,70.93
2022-08-08T04:42:58.061Z,71.09
2022-08-08T04:45:49.717Z,70.81
2022-08-08T04:48:16.807Z,70.24
2022-08-08T04:50:49.371Z,70.54
2022-08-08T04:54:26.737Z,70.84
2022-08-08T04:56:10.368Z,71.11
2022-08-08T04:58:40.586Z,71.33
2022-08-08T05:01:10.889Z,71.59
2022-08-08T05:04:09.746Z,70.79
2022-08-08T05:06:33.826Z,71.16
2022-08-08T05:09:06.048Z,70.48
2022-08-08T05:11:39.955Z,69.38
2022-08-08T05:14:12.432Z,69.34
2022-08-08T05:16:52.483Z,69.29
2022-08-08T05:20:04.302Z,68.81
2022-08-08T05:22:12.588Z,68.75
2022-08-08T05:24:48.492Z,68.17
2022-08-08T05:27:18.119Z,68.57
2022-08-08T05:29:51.788Z,68.33
2022-08-08T05:32:27.001Z,67.46
2022-08-08T05:35:07.559Z,67.37
2022-08-08T05:37:51.942Z,66.84
2022-08-08T05:40:30.226Z,66.37
2022-08-08T05:43:38.209Z,64.89
2022-08-08T05:46:03.877Z,64.41
2022-08-08T05:48:38.059Z,64.44
2022-08-08T05:51:14.897Z,64.91
2022-08-08T05:54:26.265Z,63.79
2022-08-08T05:56:42.337Z,63.48
2022-08-08T05:59:59.464Z,63.52
2022-08-08T06:02:33.831Z,62.40
2022-08-08T06:05:24.261Z,62.69
2022-08-08T06:07:51.400Z,62.45
2022-08-08T06:10:31.911Z,61.85
2022-08-08T06:13:00.761Z,61.57
2022-08-08T06:15:50.163Z,61.05
2022-08-08T06:18:22.092Z,60.67
2022-08-08T06:20:52.890Z,60.63
2022-08-08T06:23:39.694Z,60.47
2022-08-08T06:26:43.521Z,59.36
2022-08-08T06:29:26.852Z,59.38
2022-08-08T06:32:11.410Z,58.63
2022-08-08T06:34:56.516Z,58.32
2022-08-08T06:37:37.943Z,57.88
2022-08-08T06:40:16.531Z,57.55
2022-08-08T06:42:52.240Z,57.16
2022-08-08T06:45:24.407Z,56.60
2022-08-08T06:48:01.031Z,56.66
2022-08-08T06:50:38.147Z,56.30
2022-08-08T06:53:09.893Z,56.58
2022-08-08T06:55:47.454Z,56.42
2022-08-08T06:58:33.318Z,55.61
2022-08-08T07:01:52.598Z,54.84
2022-08-08T07:04:37.644Z,55.08
2022-08-08T07:06:46.750Z,54.37
2022-08-08T07:09:17.891Z,54.32
2022-08-08T07:11:52.215Z,54.49
2022-08-08T07:14:27.871Z,54.13
2022-08-08T07:17:02.544Z,54.00
2022-08-08T07:19:38.304Z,53.09
2022-08-08T07:22:12.133Z,52.54
2022-08-08T07:24:54.219Z,51.41
2022-08-08T07:27:35.501Z,51.28
2022-08-08T07:30:14.941Z,50.79
2022-08-08T07:32:47.712Z,50.07
2022-08-08T07:35:16.292Z,49.47
2022-08-08T07:38:04.958Z,49.03
2022-08-08T07:40:50.669Z,49.23
2022-08-08T07:43:32.404Z,48.41
2022-08-08T07:46:23.406Z,48.06
2022-08-08T07:48:56.919Z,48.00
2022-08-08T07:51:53.201Z,47.12
2022-08-08T07:54:45.521Z,47.17
2022-08-08T07:57:48.345Z,46.21
2022-08-08T08:00:26.390Z,44.78
2022-08-08T08:03:12.478Z,44.32
2022-08-08T08:05:55.873Z,44.42
2022-08-08T08:08:40.088Z,44.38
2022-08-08T08:11:21.360Z,44.37
2022-08-08T08:14:10.617Z,44.43
2022-08-08T08:16:50.753Z,43.51
2022-08-08T08:22:11.335Z,42.79
2022-08-08T08:24:52.459Z,41.71
2022-08-08T08:27:22.665Z,42.01
2022-08-08T08:29:57.374Z,41.81
2022-08-08T08:32:31.662Z,42.20
2022-08-08T08:38:17.506Z,39.61
2022-08-08T08:40:54.026Z,39.48
2022-08-08T08:43:26.765Z,39.26
2022-08-08T08:46:03.430Z,39.19
2022-08-08T08:48:36.323Z,39.39
2022-08-08T08:51:23.574Z,37.53
2022-08-08T08:53:59.750Z,37.01
2022-08-08T08:56:38.779Z,36.81
2022-08-08T08:59:15.136Z,37.46
2022-08-08T09:01:51.745Z,35.08
2022-08-08T09:04:31.108Z,34.93
2022-08-08T09:07:19.063Z,34.39
2022-08-08T09:09:57.490Z,32.37
2022-08-08T09:15:47.919Z,32.03
2022-08-08T09:18:18.224Z,31.34
2022-08-08T09:21:56.921Z,31.29
2022-08-08T09:23:38.228Z,30.76
2022-08-08T09:26:51.492Z,31.15
2022-08-08T09:30:02.123Z,28.74
2022-08-08T09:33:12.387Z,27.28
2022-08-08T09:35:50.160Z,28.21
2022-08-08T09:38:53.190Z,28.36
2022-08-08T09:41:33.674Z,29.70
2022-08-08T09:44:33.851Z,29.77
2022-08-08T09:47:26.622Z,29.60
2022-08-08T09:50:10.052Z,28.99
2022-08-08T09:52:59.349Z,29.11
2022-08-08T09:56:04.439Z,28.54
2022-08-08T09:58:40.367Z,28.70
2022-08-08T10:01:15.145Z,29.00
2022-08-08T10:04:02.205Z,27.52
2022-08-08T10:06:44.912Z,27.25
2022-08-08T10:09:17.750Z,25.63
2022-08-08T10:12:26.447Z,24.72
2022-08-08T10:15:18.387Z,25.39
2022-08-08T10:18:05.312Z,25.07
2022-08-08T10:20:51.490Z,25.43
2022-08-08T10:23:57.890Z,24.75
2022-08-08T10:26:56.677Z,23.57
2022-08-08T10:29:31.108Z,23.72
2022-08-08T10:32:34.147Z,21.85
2022-08-08T10:35:14.286Z,23.10
2022-08-08T10:38:03.223Z,23.04
2022-08-08T10:40:38.905Z,22.57
2022-08-08T10:43:07.009Z,22.52
2022-08-08T10:45:56.948Z,23.21
2022-08-08T10:48:57.913Z,23.62
2022-08-08T10:51:24.324Z,24.06
2022-08-08T10:53:57.391Z,24.20
2022-08-08T10:56:32.530Z,23.58
2022-08-08T10:59:05.051Z,23.10
2022-08-08T11:01:33.320Z,22.16
2022-08-08T11:04:02.562Z,21.79
2022-08-08T11:06:34.332Z,21.87
2022-08-08T11:09:03.854Z,21.38
2022-08-08T11:12:06.317Z,21.99
2022-08-08T11:14:30.488Z,22.74
2022-08-08T11:16:58.065Z,22.60
2022-08-08T11:19:27.853Z,22.51
2022-08-08T11:21:56.401Z,21.87
2022-08-08T11:24:25.742Z,22.11
2022-08-08T11:26:57.502Z,22.02
2022-08-08T11:29:41.909Z,21.95
2022-08-08T11:32:14.614Z,22.91
2022-08-08T11:35:24.516Z,23.37
2022-08-08T11:38:34.175Z,23.17
2022-08-08T11:40:21.505Z,22.20
2022-08-08T11:42:53.472Z,21.17
2022-08-08T11:45:22.594Z,20.88
2022-08-08T11:48:02.774Z,20.86
2022-08-08T11:50:33.843Z,21.69
2022-08-08T11:53:01.314Z,22.09
2022-08-08T11:55:36.719Z,21.58
2022-08-08T11:58:14.867Z,20.72
2022-08-08T12:00:53.476Z,22.03
2022-08-08T12:03:24.562Z,20.62
2022-08-08T12:05:57.880Z,21.36
2022-08-08T12:08:33.477Z,22.29
2022-08-08T12:11:03.089Z,21.75
2022-08-08T12:13:33.296Z,21.61
2022-08-08T12:16:10.323Z,19.66
2022-08-08T12:18:44.822Z,20.04
2022-08-08T12:21:21.523Z,19.37
2022-08-08T12:24:05.971Z,19.63
2022-08-08T12:26:41.417Z,20.23
2022-08-08T12:29:44.958Z,19.43
2022-08-08T12:32:17.192Z,19.57
2022-08-08T12:34:51.121Z,19.29
2022-08-08T12:37:21.637Z,19.18
2022-08-08T12:40:00.179Z,19.43
2022-08-08T12:42:33.846Z,19.14
2022-08-08T12:45:02.531Z,18.69
2022-08-08T12:47:59.069Z,18.51
2022-08-08T12:50:16.803Z,17.78
2022-08-08T12:52:52.870Z,18.44
2022-08-08T12:55:29.388Z,18.67
2022-08-08T12:58:15.792Z,18.27
2022-08-08T13:00:46.434Z,18.43
2022-08-08T13:03:28.469Z,18.65
2022-08-08T13:06:06.688Z,18.19
2022-08-08T13:08:53.155Z,17.81
2022-08-08T13:11:22.354Z,18.32
2022-08-08T13:14:01.197Z,18.96
2022-08-08T13:16:31.303Z,18.63
2022-08-08T13:19:01.689Z,18.45
2022-08-08T13:21:53.061Z,18.02
2022-08-08T13:24:40.890Z,18.35
2022-08-08T13:27:22.476Z,18.22
2022-08-08T13:29:59.860Z,17.65
2022-08-08T13:32:28.923Z,17.38
2022-08-08T13:34:57.197Z,17.10
2022-08-08T13:38:05.602Z,16.97
2022-08-08T13:40:26.615Z,17.32
2022-08-08T13:42:55.213Z,16.77
2022-08-08T13:45:24.320Z,17.02
2022-08-08T13:48:03.080Z,16.76
2022-08-08T13:50:43.199Z,16.02
2022-08-08T13:53:34.246Z,16.02
2022-08-08T13:56:11.626Z,15.59
2022-08-08T13:58:59.503Z,15.62
2022-08-08T14:01:52.629Z,15.76
2022-08-08T14:04:24.525Z,15.59
2022-08-08T14:06:59.759Z,15.44
2022-08-08T14:10:05.464Z,15.61
2022-08-08T14:12:20.616Z,16.24
2022-08-08T14:14:47.557Z,15.39
2022-08-08T14:17:27.715Z,16.03
2022-08-08T14:20:06.787Z,17.37
2022-08-08T14:22:37.322Z,17.97
2022-08-08T14:25:07.931Z,18.31
2022-08-08T14:27:42.463Z,18.48
2022-08-08T14:30:33.410Z,18.45
2022-08-08T14:33:00.817Z,17.37
2022-08-08T14:35:35.891Z,17.27
2022-08-08T14:38:33.392Z,17.37
2022-08-08T14:40:54.212Z,17.31
2022-08-08T14:44:02.063Z,17.24
2022-08-08T14:46:30.860Z,16.61
2022-08-08T14:49:02.565Z,17.25
2022-08-08T14:51:51.814Z,17.00
2022-08-08T14:54:28.719Z,16.70
2022-08-08T14:56:57.158Z,16.58
2022-08-08T14:59:43.669Z,16.90
2022-08-08T15:02:15.383Z,17.42
2022-08-08T15:04:42.960Z,18.40
2022-08-08T15:07:22.547Z,18.37
2022-08-08T15:09:50.029Z,17.86
2022-08-08T15:12:27.391Z,16.98
2022-08-08T15:14:54.846Z,17.15
2022-08-08T15:17:22.576Z,16.93
2022-08-08T15:19:50.816Z,17.07
2022-08-08T15:22:17.991Z,17.22
2022-08-08T15:24:50.981Z,17.73
2022-08-08T15:27:58.286Z,17.48
2022-08-08T15:30:12.640Z,17.80
2022-08-08T15:32:43.149Z,17.51
2022-08-08T15:35:10.830Z,17.49
2022-08-08T15:37:37.999Z,17.81
2022-08-08T15:40:07.044Z,18.05
2022-08-08T15:42:38.854Z,18.28
2022-08-08T15:45:07.041Z,18.07
2022-08-08T15:47:33.896Z,17.71
2022-08-08T15:50:00.860Z,17.28
2022-08-08T15:52:29.107Z,16.61
2022-08-08T15:55:04.422Z,16.57
2022-08-08T15:57:35.295Z,16.32
2022-08-08T16:00:05.805Z,16.53
2022-08-08T16:02:53.322Z,16.51
2022-08-08T16:05:23.647Z,15.78
2022-08-08T16:07:53.929Z,15.44
2022-08-08T16:13:15.208Z,14.75
2022-08-08T16:13:28.124Z,13.27
2022-08-08T16:16:16.472Z,12.82
2022-08-08T16:18:56.661Z,12.42
2022-08-08T16:21:29.588Z,11.73
2022-08-08T16:23:57.088Z,11.33
2022-08-08T16:26:34.215Z,11.08
2022-08-08T16:29:07.769Z,10.96
2022-08-08T16:31:37.272Z,11.34
2022-08-08T16:34:04.497Z,11.20
2022-08-08T16:36:33.383Z,10.67
2022-08-08T16:39:01.453Z,11.01
2022-08-08T16:41:36.959Z,11.35
2022-08-08T16:44:04.053Z,11.12
2022-08-08T16:46:37.516Z,11.34
2022-08-08T16:49:11.869Z,12.52
2022-08-08T16:55:01.841Z,14.96
2022-08-08T16:55:06.253Z,14.24
2022-08-08T16:57:27.925Z,15.35
2022-08-08T17:00:06.352Z,14.67
2022-08-08T17:02:38.340Z,14.61
2022-08-08T17:05:06.434Z,14.09
2022-08-08T17:07:33.227Z,14.13
2022-08-08T17:10:05.182Z,14.46
2022-08-08T17:12:34.154Z,14.82
2022-08-08T17:15:17.229Z,15.15
2022-08-08T17:18:01.223Z,15.62
2022-08-08T17:20:31.551Z,16.40
2022-08-08T17:23:16.449Z,16.82
2022-08-08T17:25:52.654Z,17.39
2022-08-08T17:28:28.803Z,18.66
2022-08-08T17:31:39.109Z,18.75
2022-08-08T17:34:48.249Z,19.23
2022-08-08T17:36:36.754Z,19.90
2022-08-08T17:39:05.342Z,20.32
2022-08-08T17:41:58.259Z,20.76
2022-08-08T17:44:27.014Z,21.19
2022-08-08T17:46:55.722Z,21.49
2022-08-08T17:49:25.021Z,21.71
2022-08-08T17:51:55.736Z,21.95
2022-08-08T17:54:29.058Z,22.20
2022-08-08T17:56:56.309Z,22.48
2022-08-08T17:59:30.537Z,22.29
2022-08-08T18:02:03.948Z,22.88
2022-08-08T18:04:31.946Z,23.00
2022-08-08T18:07:00.721Z,22.96
2022-08-08T18:09:31.421Z,23.56
2022-08-08T18:12:08.021Z,23.50
2022-08-08T18:14:38.272Z,24.05
2022-08-08T18:17:06.664Z,23.64
2022-08-08T18:19:46.107Z,23.79
2022-08-08T18:22:50.916Z,24.39
2022-08-08T18:25:19.053Z,24.76
2022-08-08T18:27:45.999Z,24.97
2022-08-08T18:30:13.590Z,24.94
2022-08-08T18:32:41.925Z,25.28
2022-08-08T18:35:09.749Z,25.01
2022-08-08T18:37:48.453Z,25.19
2022-08-08T18:40:15.893Z,25.17
2022-08-08T18:42:45.650Z,25.48
2022-08-08T18:46:52.332Z,25.58
2022-08-08T18:48:07.515Z,25.60
2022-08-08T18:50:39.636Z,25.87
2022-08-08T18:53:17.212Z,26.42
2022-08-08T18:55:46.524Z,26.24
2022-08-08T18:58:13.662Z,26.65
2022-08-08T19:00:40.938Z,26.79
2022-08-08T19:03:13.723Z,26.96
2022-08-08T19:05:45.268Z,27.16
2022-08-08T19:08:28.531Z,27.35
2022-08-08T19:11:01.641Z,27.97
2022-08-08T19:13:53.194Z,28.43
2022-08-08T19:16:19.210Z,28.40
2022-08-08T19:18:48.290Z,28.01
2022-08-08T19:21:28.018Z,28.01
2022-08-08T19:23:57.257Z,27.95
2022-08-08T19:26:30.254Z,28.30
2022-08-08T19:28:58.611Z,28.36
2022-08-08T19:31:34.977Z,28.39
2022-08-08T19:34:36.235Z,28.27
2022-08-08T19:36:52.373Z,29.24
2022-08-08T19:39:19.665Z,29.96
2022-08-08T19:41:50.277Z,30.33
2022-08-08T19:44:26.876Z,30.66
2022-08-08T19:47:04.322Z,31.33
2022-08-08T19:49:36.487Z,31.53
2022-08-08T19:52:05.480Z,31.67
2022-08-08T19:54:32.404Z,32.01
2022-08-08T19:56:59.245Z,32.55
2022-08-08T19:59:31.334Z,32.79
2022-08-08T20:02:04.265Z,33.07
2022-08-08T20:04:32.051Z,33.44
2022-08-08T20:07:05.348Z,33.21
2022-08-08T20:09:55.392Z,33.48
2022-08-08T20:12:32.306Z,33.61
2022-08-08T20:15:02.073Z,33.60
2022-08-08T20:17:42.098Z,34.42
2022-08-08T20:20:10.741Z,34.24
2022-08-08T20:22:40.542Z,34.80
2022-08-08T20:25:08.431Z,35.23
2022-08-08T20:27:49.113Z,35.24
2022-08-08T20:30:53.077Z,35.21
2022-08-08T20:33:05.037Z,35.42
2022-08-08T20:35:59.084Z,35.58
2022-08-08T20:38:32.886Z,35.41
2022-08-08T20:41:02.832Z,35.70
2022-08-08T20:43:43.478Z,35.61
2022-08-08T20:46:14.994Z,35.66
2022-08-08T20:48:41.889Z,35.57
2022-08-08T20:51:08.898Z,35.55
2022-08-08T20:53:59.887Z,35.66
2022-08-08T20:56:35.656Z,36.06
2022-08-08T20:59:10.215Z,36.14
2022-08-08T21:02:05.802Z,36.17
2022-08-08T21:04:27.360Z,36.50
2022-08-08T21:06:55.087Z,37.01
2022-08-08T21:09:22.158Z,37.15
2022-08-08T21:11:51.317Z,37.29
2022-08-08T21:14:30.303Z,37.26
2022-08-08T21:17:00.790Z,37.42
2022-08-08T21:19:33.953Z,37.47
2022-08-08T21:22:11.711Z,37.58
2022-08-08T21:24:39.699Z,37.35
2022-08-08T21:27:15.577Z,36.58
2022-08-08T21:30:05.727Z,36.42
2022-08-08T21:32:37.277Z,36.70
2022-08-08T21:36:19.288Z,37.94
2022-08-08T21:37:55.305Z,37.95
2022-08-08T21:40:31.483Z,38.38
2022-08-08T21:42:58.835Z,38.78
2022-08-08T21:47:59.658Z,39.28
2022-08-08T21:48:20.059Z,39.70
2022-08-08T21:50:49.970Z,40.22
2022-08-08T21:54:30.977Z,40.58
2022-08-08T21:56:24.465Z,40.51
2022-08-08T21:58:55.532Z,40.91
2022-08-08T22:01:28.108Z,41.08
2022-08-08T22:04:06.711Z,40.84
2022-08-08T22:06:33.613Z,40.50
2022-08-08T22:09:08.451Z,39.97
2022-08-08T22:11:51.684Z,39.97
2022-08-08T22:14:23.777Z,39.89
2022-08-08T22:16:53.795Z,39.75
2022-08-08T22:19:23.705Z,39.55
2022-08-08T22:21:51.573Z,39.20
2022-08-08T22:24:28.505Z,39.01
2022-08-08T22:27:01.983Z,39.08
2022-08-08T22:30:01.161Z,38.91
2022-08-08T22:32:18.008Z,39.65
2022-08-08T22:34:50.644Z,40.20
2022-08-08T22:37:49.002Z,40.68
2022-08-08T22:40:11.809Z,41.03
2022-08-08T22:42:45.600Z,41.21
2022-08-08T22:45:15.402Z,41.23
2022-08-08T22:47:48.663Z,41.33
2022-08-08T22:50:26.054Z,41.67
2022-08-08T22:54:17.025Z,41.73
2022-08-08T22:55:57.855Z,41.75
2022-08-08T22:58:28.813Z,41.95
2022-08-08T23:00:59.989Z,42.69
2022-08-08T23:03:52.691Z,43.26
2022-08-08T23:06:15.878Z,43.18
2022-08-08T23:08:44.668Z,43.33
2022-08-08T23:11:23.477Z,43.81
2022-08-08T23:14:11.384Z,43.35
2022-08-08T23:16:43.989Z,43.60
2022-08-08T23:19:13.185Z,43.82
2022-08-08T23:21:42.453Z,43.64
2022-08-08T23:24:09.474Z,43.56
2022-08-08T23:26:37.806Z,43.43
2022-08-08T23:29:10.789Z,43.82
2022-08-08T23:31:38.852Z,43.60
2022-08-08T23:34:18.015Z,43.65
2022-08-08T23:36:46.799Z,43.91
2022-08-08T23:39:13.753Z,43.41
2022-08-08T23:41:45.762Z,43.32
2022-08-08T23:44:14.299Z,43.43
2022-08-08T23:49:00.273Z,43.14
2022-08-08T23:49:28.552Z,43.31
2022-08-08T23:52:04.500Z,43.43
2022-08-08T23:54:43.096Z,44.07
2022-08-08T23:57:39.087Z,45.07
